Terminal Aerodrome Forecast
Issued by NWS Buffalo, NY

Home | Current Version | Previous Version | Text Only | Print | Product List | Glossary On
Versions: 1 2 3 4 5 6 7 8 9 10 11 12 13 14 15 16 17 18 19 20 21 22 23 24 25 26 27
000
FTUS41 KBUF 062116 AAA
TAFART
TAF AMD
KART 062116Z 0621/0718 VRB03KT P6SM FEW250
     FM070200 16004KT P6SM BKN080
     FM070500 17005KT P6SM BKN045
     FM071600 20009KT P6SM SCT030 BKN080=

USA.gov is the U.S. government's official web portal to all federal, state and local government web resources and services.